EHGR/GLZ METAR and TAF weather

Enter ICAO airport designator
Station Type Date Time Source
EHGR METAR 2024/04/18 07:55 UTC NOAA

EHGR 180755Z AUTO 35006KT 310V060 9999 FEW020 09/03 Q1019 BLU NOSIG


Station Type Date Time Source
EHGR Decoded METAR 2024/04/18 07:55 UTC NOAA

Gilze-Rijen, Netherlands (EHGR) 51-34N 004-56E 24M
Apr 18, 2024 - 03:55 AM EDT / 2024.04.18 0755 UTC
Wind: from the N (350 degrees) at 7 MPH (6 KT) (direction variable):0
Visibility: greater than 7 mile(s):0
Sky conditions: mostly clear
Temperature: 48 F (9 C)
Dew Point: 37 F (3 C)
Relative Humidity: 66%
Pressure (altimeter): 30.09 in. Hg (1019 hPa)
ob: EHGR 180755Z AUTO 35006KT 310V060 9999 FEW020 09/03 Q1019 BLU NOSIG
cycle: 8

Station Type Date Time Source
EHGR TAF 2024/04/18 17:33 UTC NOAA